createdAt,value
2023-01-31T00:01:17.349Z,94930.97
2023-01-31T00:03:45.177Z,94930.41
2023-01-31T00:06:19.548Z,94922.16
2023-01-31T00:08:47.989Z,94921.00
2023-01-31T00:11:15.646Z,94920.44
2023-01-31T00:13:42.760Z,94921.00
2023-01-31T00:16:10.602Z,94922.59
2023-01-31T00:18:39.131Z,94928.16
2023-01-31T00:21:12.405Z,94923.00
2023-01-31T00:23:40.520Z,94926.00
2023-01-31T00:26:09.401Z,94923.09
2023-01-31T00:28:35.960Z,94920.75
2023-01-31T00:31:02.455Z,94925.09
2023-01-31T00:33:28.910Z,94919.97
2023-01-31T00:35:55.607Z,94928.09
2023-01-31T00:38:22.685Z,94919.25
2023-01-31T00:40:53.273Z,94914.75
2023-01-31T00:43:20.071Z,94918.31
2023-01-31T00:45:46.508Z,94913.84
2023-01-31T00:48:13.216Z,94926.91
2023-01-31T00:50:39.792Z,94912.72
2023-01-31T00:53:06.692Z,94913.72
2023-01-31T00:55:33.125Z,94922.63
2023-01-31T00:57:59.655Z,94914.38
2023-01-31T01:00:26.157Z,94909.66
2023-01-31T01:02:53.005Z,94910.09
2023-01-31T01:05:19.654Z,94924.47
2023-01-31T01:07:46.254Z,94923.13
2023-01-31T01:10:13.129Z,94919.00
2023-01-31T01:12:40.456Z,94923.13
2023-01-31T01:15:07.511Z,94924.34
2023-01-31T01:17:34.362Z,94922.97
2023-01-31T01:20:03.750Z,94928.34
2023-01-31T01:22:31.238Z,94922.41
2023-01-31T01:24:57.685Z,94922.66
2023-01-31T01:27:24.523Z,94930.53
2023-01-31T01:29:50.923Z,94918.50
2023-01-31T01:32:17.352Z,94920.50
2023-01-31T01:34:43.875Z,94920.34
2023-01-31T01:37:12.002Z,94913.09
2023-01-31T01:39:39.034Z,94915.22
2023-01-31T01:42:05.991Z,94930.03
2023-01-31T01:44:49.445Z,94921.34
2023-01-31T01:47:37.287Z,94920.78
2023-01-31T01:50:10.029Z,94925.91
2023-01-31T01:52:44.074Z,94926.91
2023-01-31T01:55:24.930Z,94928.91
2023-01-31T01:57:56.631Z,94927.34
2023-01-31T02:00:26.847Z,94931.66
2023-01-31T02:02:56.737Z,94926.97
2023-01-31T02:05:30.992Z,94922.44
2023-01-31T02:08:00.260Z,94938.94
2023-01-31T02:10:41.998Z,94929.66
2023-01-31T02:13:08.588Z,94932.88
2023-01-31T02:15:35.946Z,94937.44
2023-01-31T02:18:02.548Z,94930.19
2023-01-31T02:20:50.986Z,94932.53
2023-01-31T02:23:54.743Z,94945.56
2023-01-31T02:26:58.773Z,94940.44
2023-01-31T02:30:14.827Z,94937.72
2023-01-31T02:33:10.755Z,94943.28
2023-01-31T02:36:19.418Z,94940.16
2023-01-31T02:39:07.267Z,94942.91
2023-01-31T02:41:48.707Z,94935.44
2023-01-31T02:45:14.887Z,94940.56
2023-01-31T02:48:04.606Z,94943.97
2023-01-31T02:50:44.114Z,94947.94
2023-01-31T02:53:27.114Z,94942.06
2023-01-31T02:56:23.768Z,94946.16
2023-01-31T02:58:58.007Z,94942.25
2023-01-31T03:01:31.559Z,94951.28
2023-01-31T03:04:01.872Z,94967.06
2023-01-31T03:06:28.274Z,94963.50
2023-01-31T03:09:11.885Z,94967.44
2023-01-31T03:11:54.033Z,94957.34
2023-01-31T03:14:31.384Z,94976.31
2023-01-31T03:17:46.138Z,94973.75
2023-01-31T03:20:21.285Z,94975.31
2023-01-31T03:22:59.993Z,94980.03
2023-01-31T03:25:30.931Z,94976.91
2023-01-31T03:28:06.323Z,94986.72
2023-01-31T03:30:39.820Z,94978.25
2023-01-31T03:33:13.441Z,94980.03
2023-01-31T03:35:43.015Z,94972.91
2023-01-31T03:38:20.971Z,94969.75
2023-01-31T03:41:37.183Z,94977.03
2023-01-31T03:44:09.568Z,94975.69
2023-01-31T03:46:44.707Z,94976.53
2023-01-31T03:49:15.269Z,94991.50
2023-01-31T03:51:48.328Z,94994.06
2023-01-31T03:54:26.004Z,94992.28
2023-01-31T03:56:58.369Z,94985.56
2023-01-31T03:59:31.595Z,94977.31
2023-01-31T04:02:01.304Z,94977.72
2023-01-31T04:04:37.062Z,94982.84
2023-01-31T04:07:03.845Z,94980.50
2023-01-31T04:09:31.171Z,94971.25
2023-01-31T04:12:01.205Z,94980.72
2023-01-31T04:14:28.470Z,94976.56
2023-01-31T04:16:55.094Z,94991.38
2023-01-31T04:19:21.581Z,94999.63
2023-01-31T04:21:48.040Z,95009.91
2023-01-31T04:24:14.569Z,95009.69
2023-01-31T04:26:41.044Z,95006.91
2023-01-31T04:29:07.452Z,95015.41
2023-01-31T04:31:34.298Z,95013.84
2023-01-31T04:34:00.765Z,95016.19
2023-01-31T04:36:27.332Z,95021.31
2023-01-31T04:38:53.816Z,95027.03
2023-01-31T04:41:20.260Z,95020.34
2023-01-31T04:43:46.821Z,95025.47
2023-01-31T04:46:13.460Z,95017.56
2023-01-31T04:48:41.301Z,95033.50
2023-01-31T04:51:08.570Z,95029.38
2023-01-31T04:53:35.216Z,95033.72
2023-01-31T04:56:02.388Z,95028.59
2023-01-31T04:58:29.003Z,95029.38
2023-01-31T05:00:55.581Z,95035.88
2023-01-31T05:03:22.081Z,95034.09
2023-01-31T05:05:49.763Z,95022.50
2023-01-31T05:08:16.294Z,95036.44
2023-01-31T05:10:43.043Z,95040.00
2023-01-31T05:13:10.582Z,95044.16
2023-01-31T05:15:38.234Z,95043.16
2023-01-31T05:18:04.851Z,95045.91
2023-01-31T05:20:36.470Z,95050.47
2023-01-31T05:23:03.770Z,95035.31
2023-01-31T05:25:31.544Z,95042.00
2023-01-31T05:27:58.429Z,95040.44
2023-01-31T05:30:25.222Z,95036.50
2023-01-31T05:32:51.958Z,95034.72
2023-01-31T05:35:19.048Z,95027.44
2023-01-31T05:37:46.213Z,95038.69
2023-01-31T05:40:14.635Z,95036.56
2023-01-31T05:42:41.638Z,95039.94
2023-01-31T05:45:09.857Z,95038.16
2023-01-31T05:47:36.538Z,95031.69
2023-01-31T05:50:03.968Z,95034.66
2023-01-31T05:52:30.964Z,95039.22
2023-01-31T05:54:57.574Z,95044.16
2023-01-31T05:57:24.028Z,95055.41
2023-01-31T05:59:50.414Z,95051.28
2023-01-31T06:02:16.993Z,95050.13
2023-01-31T06:04:43.517Z,95049.75
2023-01-31T06:07:09.991Z,95052.53
2023-01-31T06:09:38.804Z,95057.28
2023-01-31T06:12:05.597Z,95050.78
2023-01-31T06:14:32.489Z,95054.31
2023-01-31T06:16:59.178Z,95049.59
2023-01-31T06:19:25.972Z,95053.75
2023-01-31T06:21:52.599Z,95055.75
2023-01-31T06:24:19.067Z,95051.03
2023-01-31T06:26:45.605Z,95045.28
2023-01-31T06:29:12.171Z,95046.88
2023-01-31T06:31:38.730Z,95052.00
2023-01-31T06:34:05.247Z,95062.81
2023-01-31T06:36:34.182Z,95064.41
2023-01-31T06:39:00.757Z,95066.75
2023-01-31T06:41:27.163Z,95062.81
2023-01-31T06:43:53.651Z,95065.53
2023-01-31T06:46:20.077Z,95071.03
2023-01-31T06:48:48.327Z,95074.97
2023-01-31T06:51:16.130Z,95067.06
2023-01-31T06:53:42.734Z,95061.94
2023-01-31T06:56:10.034Z,95063.91
2023-01-31T06:58:36.488Z,95067.06
2023-01-31T07:01:11.765Z,95071.41
2023-01-31T07:03:38.296Z,95067.47
2023-01-31T07:06:06.753Z,95071.03
2023-01-31T07:08:35.815Z,95071.84
2023-01-31T07:11:03.489Z,95069.47
2023-01-31T07:13:30.248Z,95075.59
2023-01-31T07:15:57.142Z,95068.66
2023-01-31T07:18:23.712Z,95067.13
2023-01-31T07:20:50.610Z,95067.91
2023-01-31T07:23:17.293Z,95060.41
2023-01-31T07:25:43.706Z,95054.09
2023-01-31T07:28:11.873Z,95063.19
2023-01-31T07:30:39.932Z,95054.50
2023-01-31T07:33:06.485Z,95057.22
2023-01-31T07:35:33.394Z,95056.81
2023-01-31T07:37:59.818Z,95064.88
2023-01-31T07:40:26.284Z,95056.00
2023-01-31T07:42:57.977Z,95057.34
2023-01-31T07:45:24.440Z,95052.78
2023-01-31T07:47:51.701Z,95054.00
2023-01-31T07:50:18.886Z,95056.16
2023-01-31T07:52:45.333Z,95051.44
2023-01-31T07:55:11.787Z,95056.75
2023-01-31T07:57:38.210Z,95057.88
2023-01-31T08:00:25.087Z,95059.47
2023-01-31T08:03:29.598Z,95065.75
2023-01-31T08:05:56.031Z,95070.03
2023-01-31T08:08:22.480Z,95067.63
2023-01-31T08:10:48.918Z,95068.81
2023-01-31T08:13:15.319Z,95055.75
2023-01-31T08:15:41.752Z,95068.75
2023-01-31T08:18:08.150Z,95072.63
2023-01-31T08:20:37.568Z,95062.31
2023-01-31T08:23:03.999Z,95063.03
2023-01-31T08:25:30.678Z,95063.00
2023-01-31T08:27:58.202Z,95054.28
2023-01-31T08:30:24.655Z,95061.53
2023-01-31T08:32:51.148Z,95061.66
2023-01-31T08:35:17.794Z,95063.16
2023-01-31T08:37:44.412Z,95069.47
2023-01-31T08:40:11.434Z,95064.25
2023-01-31T08:42:38.091Z,95057.47
2023-01-31T08:45:05.222Z,95064.56
2023-01-31T08:47:31.647Z,95077.13
2023-01-31T08:49:58.080Z,95076.19
2023-01-31T08:52:24.659Z,95077.25
2023-01-31T08:54:51.122Z,95076.66
2023-01-31T08:57:17.544Z,95077.75
2023-01-31T08:59:43.953Z,95082.38
2023-01-31T09:02:11.769Z,95082.97
2023-01-31T09:04:38.188Z,95080.03
2023-01-31T09:07:04.604Z,95084.47
2023-01-31T09:09:31.513Z,95073.22
2023-01-31T09:11:57.933Z,95077.59
2023-01-31T09:14:24.388Z,95065.50
2023-01-31T09:16:50.865Z,95066.94
2023-01-31T09:19:17.380Z,95077.91
2023-01-31T09:21:43.951Z,95078.56
2023-01-31T09:24:11.391Z,95072.31
2023-01-31T09:26:38.163Z,95082.03
2023-01-31T09:29:04.670Z,95091.31
2023-01-31T09:31:31.492Z,95088.31
2023-01-31T09:33:58.104Z,95093.22
2023-01-31T09:36:25.075Z,95094.44
2023-01-31T09:38:57.906Z,95091.31
2023-01-31T09:41:38.609Z,95110.78
2023-01-31T09:44:34.396Z,95093.09
2023-01-31T09:47:14.092Z,95081.75
2023-01-31T09:49:52.768Z,95092.81
2023-01-31T09:52:19.308Z,95092.50
2023-01-31T09:54:45.773Z,95096.41
2023-01-31T09:57:12.159Z,95085.22
2023-01-31T09:59:51.741Z,95091.50
2023-01-31T10:02:45.205Z,95085.13
2023-01-31T10:05:38.737Z,95098.81
2023-01-31T10:08:20.326Z,95091.63
2023-01-31T10:10:54.832Z,95095.78
2023-01-31T10:13:29.725Z,95090.28
2023-01-31T10:16:03.209Z,95087.47
2023-01-31T10:18:33.522Z,95082.34
2023-01-31T10:21:06.244Z,95070.84
2023-01-31T10:23:41.392Z,95069.63
2023-01-31T10:26:46.553Z,95072.31
2023-01-31T10:29:29.496Z,95064.03
2023-01-31T10:32:08.651Z,95051.16
2023-01-31T10:34:43.858Z,95054.06
2023-01-31T10:37:19.134Z,95052.38
2023-01-31T10:39:51.036Z,95077.78
2023-01-31T10:42:27.821Z,95062.00
2023-01-31T10:44:58.752Z,95061.13
2023-01-31T10:47:34.268Z,95062.25
2023-01-31T10:50:03.074Z,95059.81
2023-01-31T10:53:00.432Z,95057.00
2023-01-31T10:55:51.902Z,95048.47
2023-01-31T10:58:22.994Z,95035.94
2023-01-31T11:00:50.374Z,95037.81
2023-01-31T11:03:18.289Z,95021.34
2023-01-31T11:05:57.455Z,95021.72
2023-01-31T11:08:35.001Z,95016.66
2023-01-31T11:11:08.270Z,95006.94
2023-01-31T11:13:34.891Z,95004.69
2023-01-31T11:16:03.010Z,95000.31
2023-01-31T11:18:36.732Z,95020.81
2023-01-31T11:21:05.288Z,95020.94
2023-01-31T11:23:35.104Z,95008.41
2023-01-31T11:26:02.251Z,95005.25
2023-01-31T11:28:41.698Z,95007.66
2023-01-31T11:31:19.569Z,94998.66
2023-01-31T11:33:58.151Z,95003.84
2023-01-31T11:36:26.544Z,94995.72
2023-01-31T11:38:54.676Z,94987.59
2023-01-31T11:41:28.897Z,94971.81
2023-01-31T11:44:10.778Z,94964.06
2023-01-31T11:46:48.404Z,94955.19
2023-01-31T11:49:22.589Z,94959.03
2023-01-31T11:51:50.476Z,94972.13
2023-01-31T11:54:31.009Z,94979.47
2023-01-31T11:56:59.552Z,94964.94
2023-01-31T11:59:30.610Z,94969.22
2023-01-31T12:01:59.885Z,94951.81
2023-01-31T12:04:44.607Z,94940.63
2023-01-31T12:07:24.088Z,94932.47
2023-01-31T12:09:50.904Z,94946.50
2023-01-31T12:12:29.945Z,94936.25
2023-01-31T12:15:01.376Z,94926.78
2023-01-31T12:17:30.256Z,94942.97
2023-01-31T12:20:26.538Z,94930.19
2023-01-31T12:23:22.048Z,94920.50
2023-01-31T12:26:11.013Z,94933.72
2023-01-31T12:28:59.056Z,94922.91
2023-01-31T12:31:42.343Z,94909.59
2023-01-31T12:34:58.970Z,94905.59
2023-01-31T12:37:28.539Z,94886.38
2023-01-31T12:40:25.180Z,94879.00
2023-01-31T12:42:57.822Z,94872.97
2023-01-31T12:45:49.764Z,94873.69
2023-01-31T12:48:49.511Z,94875.72
2023-01-31T12:51:30.728Z,94882.41
2023-01-31T12:54:19.488Z,94885.44
2023-01-31T12:56:55.848Z,94875.06
2023-01-31T12:59:50.876Z,94877.88
2023-01-31T13:02:33.608Z,94867.56
2023-01-31T13:05:37.308Z,94870.69
2023-01-31T13:08:17.467Z,94869.31
2023-01-31T13:11:00.789Z,94866.38
2023-01-31T13:13:40.967Z,94842.38
2023-01-31T13:16:39.482Z,94837.31
2023-01-31T13:19:11.424Z,94824.66
2023-01-31T13:21:44.149Z,94827.47
2023-01-31T13:24:14.460Z,94830.97
2023-01-31T13:26:50.143Z,94843.75
2023-01-31T13:29:39.679Z,94822.97
2023-01-31T13:32:24.429Z,94823.19
2023-01-31T13:35:05.415Z,94820.53
2023-01-31T13:37:37.576Z,94817.41
2023-01-31T13:40:16.513Z,94816.63
2023-01-31T13:42:43.160Z,94810.41
2023-01-31T13:45:22.481Z,94819.38
2023-01-31T13:48:08.078Z,94823.47
2023-01-31T13:50:42.222Z,94833.78
2023-01-31T13:53:17.283Z,94838.16
2023-01-31T13:55:47.438Z,94824.50
2023-01-31T13:58:21.223Z,94835.38
2023-01-31T14:00:56.275Z,94835.28
2023-01-31T14:03:22.681Z,94846.25
2023-01-31T14:05:59.548Z,94831.03
2023-01-31T14:08:39.324Z,94835.94
2023-01-31T14:11:28.856Z,94846.91
2023-01-31T14:14:19.834Z,94833.25
2023-01-31T14:16:48.995Z,94834.44
2023-01-31T14:19:19.608Z,94842.25
2023-01-31T14:21:54.503Z,94846.50
2023-01-31T14:24:46.982Z,94829.00
2023-01-31T14:27:19.814Z,94838.31
2023-01-31T14:29:48.970Z,94836.19
2023-01-31T14:32:38.055Z,94835.63
2023-01-31T14:35:13.711Z,94833.50
2023-01-31T14:38:04.352Z,94826.00
2023-01-31T14:40:37.235Z,94815.47
2023-01-31T14:43:12.955Z,94818.38
2023-01-31T14:45:58.362Z,94822.06
2023-01-31T14:48:38.851Z,94821.34
2023-01-31T14:51:56.044Z,94825.88
2023-01-31T14:54:40.051Z,94826.25
2023-01-31T14:57:12.775Z,94841.44
2023-01-31T14:59:57.198Z,94820.94
2023-01-31T15:02:32.880Z,94799.25
2023-01-31T15:05:04.392Z,94796.91
2023-01-31T15:07:30.811Z,94800.03
2023-01-31T15:09:58.007Z,94806.19
2023-01-31T15:13:00.660Z,94794.31
2023-01-31T15:15:40.160Z,94793.00
2023-01-31T15:18:19.336Z,94786.50
2023-01-31T15:20:50.984Z,94783.19
2023-01-31T15:23:24.025Z,94778.16
2023-01-31T15:25:52.389Z,94783.75
2023-01-31T15:28:25.059Z,94782.63
2023-01-31T15:30:53.432Z,94787.78
2023-01-31T15:33:28.240Z,94801.13
2023-01-31T15:36:09.267Z,94820.59
2023-01-31T15:38:43.485Z,94824.41
2023-01-31T15:41:22.593Z,94829.31
2023-01-31T15:43:53.083Z,94840.56
2023-01-31T15:46:22.291Z,94841.88
2023-01-31T15:48:48.756Z,94830.81
2023-01-31T15:51:16.453Z,94838.75
2023-01-31T15:53:43.101Z,94831.72
2023-01-31T15:56:21.391Z,94850.84
2023-01-31T15:58:50.795Z,94852.84
2023-01-31T16:01:20.395Z,94856.44
2023-01-31T16:03:53.894Z,94845.56
2023-01-31T16:06:36.317Z,94841.22
2023-01-31T16:09:06.201Z,94844.25
2023-01-31T16:11:35.091Z,94859.13
2023-01-31T16:14:04.377Z,94867.84
2023-01-31T16:16:34.867Z,94871.22
2023-01-31T16:19:02.211Z,94861.94
2023-01-31T16:21:37.808Z,94877.94
2023-01-31T16:24:16.551Z,94871.00
2023-01-31T16:27:05.473Z,94874.81
2023-01-31T16:29:44.541Z,94871.09
2023-01-31T16:32:21.665Z,94870.00
2023-01-31T16:34:58.196Z,94867.88
2023-01-31T16:37:36.837Z,94871.44
2023-01-31T16:40:44.920Z,94882.72
2023-01-31T16:43:22.041Z,94871.91
2023-01-31T16:45:55.359Z,94868.44
2023-01-31T16:48:25.742Z,94883.41
2023-01-31T16:50:54.133Z,94874.91
2023-01-31T16:53:33.687Z,94874.13
2023-01-31T16:56:18.331Z,94872.34
2023-01-31T16:58:49.247Z,94875.69
2023-01-31T17:01:19.636Z,94878.16
2023-01-31T17:03:59.788Z,94878.94
2023-01-31T17:06:26.680Z,94872.22
2023-01-31T17:08:53.214Z,94876.59
2023-01-31T17:11:29.002Z,94875.03
2023-01-31T17:14:06.028Z,94879.41
2023-01-31T17:16:32.436Z,94894.38
2023-01-31T17:18:58.852Z,94887.66
2023-01-31T17:21:26.727Z,94875.81
2023-01-31T17:23:53.190Z,94881.72
2023-01-31T17:26:23.038Z,94874.25
2023-01-31T17:29:00.814Z,94882.75
2023-01-31T17:31:29.487Z,94880.94
2023-01-31T17:33:56.137Z,94884.53
2023-01-31T17:36:22.991Z,94885.34
2023-01-31T17:38:50.176Z,94879.41
2023-01-31T17:41:19.054Z,94880.94
2023-01-31T17:43:46.151Z,94879.59
2023-01-31T17:46:15.252Z,94885.97
2023-01-31T17:48:42.314Z,94870.31
2023-01-31T17:51:09.245Z,94902.09
2023-01-31T17:53:47.684Z,94880.19
2023-01-31T17:56:16.843Z,94880.38
2023-01-31T17:58:43.299Z,94889.13
2023-01-31T18:01:10.961Z,94882.19
2023-01-31T18:03:37.406Z,94891.91
2023-01-31T18:06:05.626Z,94880.38
2023-01-31T18:08:32.392Z,94876.03
2023-01-31T18:11:10.639Z,94859.03
2023-01-31T18:13:38.117Z,94879.38
2023-01-31T18:16:06.719Z,94873.25
2023-01-31T18:18:34.793Z,94879.63
2023-01-31T18:21:02.410Z,94875.38
2023-01-31T18:23:28.855Z,94880.06
2023-01-31T18:25:55.273Z,94889.31
2023-01-31T18:28:21.703Z,94879.94
2023-01-31T18:30:48.234Z,94884.50
2023-01-31T18:33:14.703Z,94889.66
2023-01-31T18:35:41.124Z,94880.59
2023-01-31T18:38:08.616Z,94880.84
2023-01-31T18:40:35.060Z,94880.84
2023-01-31T18:43:01.483Z,94879.06
2023-01-31T18:45:27.906Z,94878.81
2023-01-31T18:47:54.506Z,94871.09
2023-01-31T18:50:20.950Z,94859.03
2023-01-31T18:52:47.360Z,94853.09
2023-01-31T18:55:13.814Z,94855.69
2023-01-31T18:57:40.233Z,94853.53
2023-01-31T19:00:07.326Z,94865.63
2023-01-31T19:02:33.803Z,94873.13
2023-01-31T19:05:00.391Z,94880.03
2023-01-31T19:07:27.749Z,94882.53
2023-01-31T19:09:54.161Z,94883.06
2023-01-31T19:12:20.903Z,94869.44
2023-01-31T19:14:48.359Z,94881.41
2023-01-31T19:17:15.810Z,94867.31
2023-01-31T19:19:42.266Z,94886.66
2023-01-31T19:22:08.688Z,94873.91
2023-01-31T19:24:35.108Z,94871.13
2023-01-31T19:27:01.616Z,94869.09
2023-01-31T19:29:28.814Z,94867.63
2023-01-31T19:31:55.480Z,94867.44
2023-01-31T19:34:21.973Z,94863.06
2023-01-31T19:36:49.035Z,94861.84
2023-01-31T19:39:15.546Z,94866.53
2023-01-31T19:41:45.110Z,94862.94
2023-01-31T19:44:11.624Z,94858.38
2023-01-31T19:46:38.192Z,94861.69
2023-01-31T19:49:05.129Z,94862.50
2023-01-31T19:51:31.889Z,94868.66
2023-01-31T19:54:01.453Z,94865.31
2023-01-31T19:56:28.772Z,94864.84
2023-01-31T19:58:55.662Z,94859.72
2023-01-31T20:01:22.701Z,94857.69
2023-01-31T20:03:50.122Z,94872.09
2023-01-31T20:06:21.877Z,94851.31
2023-01-31T20:08:52.630Z,94848.50
2023-01-31T20:11:19.380Z,94834.63
2023-01-31T20:13:45.882Z,94832.06
2023-01-31T20:16:13.283Z,94832.31
2023-01-31T20:18:42.328Z,94826.91
2023-01-31T20:21:14.768Z,94825.47
2023-01-31T20:23:41.522Z,94826.56
2023-01-31T20:26:08.348Z,94834.81
2023-01-31T20:28:34.785Z,94834.81
2023-01-31T20:31:06.224Z,94834.81
2023-01-31T20:33:32.767Z,94834.81
2023-01-31T20:35:59.379Z,94832.72
2023-01-31T20:38:25.899Z,94835.75
2023-01-31T20:40:54.171Z,94850.16
2023-01-31T20:43:23.033Z,94850.97
2023-01-31T20:45:50.079Z,94846.81
2023-01-31T20:48:17.276Z,94861.00
2023-01-31T20:50:44.219Z,94859.03
2023-01-31T20:53:19.414Z,94859.56
2023-01-31T20:55:53.240Z,94858.56
2023-01-31T20:58:19.634Z,94858.78
2023-01-31T21:00:46.203Z,94868.06
2023-01-31T21:03:12.603Z,94873.78
2023-01-31T21:05:39.264Z,94872.69
2023-01-31T21:08:06.140Z,94878.59
2023-01-31T21:10:32.630Z,94881.38
2023-01-31T21:12:59.086Z,94887.88
2023-01-31T21:15:27.799Z,94881.38
2023-01-31T21:17:55.066Z,94865.72
2023-01-31T21:20:21.882Z,94857.78
2023-01-31T21:22:48.516Z,94860.91
2023-01-31T21:25:14.938Z,94848.81
2023-01-31T21:27:41.442Z,94842.69
2023-01-31T21:30:08.606Z,94843.22
2023-01-31T21:32:35.030Z,94835.25
2023-01-31T21:35:03.338Z,94816.00
2023-01-31T21:37:29.946Z,94812.19
2023-01-31T21:39:56.372Z,94797.53
2023-01-31T21:42:22.808Z,94792.94
2023-01-31T21:44:49.209Z,94778.53
2023-01-31T21:47:15.909Z,94790.69
2023-01-31T21:49:42.736Z,94794.84
2023-01-31T21:52:09.930Z,94805.94
2023-01-31T21:54:36.894Z,94780.06
2023-01-31T21:57:03.568Z,94797.16
2023-01-31T21:59:29.986Z,94804.09
2023-01-31T22:01:56.501Z,94791.47
2023-01-31T22:04:23.405Z,94792.03
2023-01-31T22:06:50.746Z,94798.19
2023-01-31T22:09:18.003Z,94795.84
2023-01-31T22:11:47.360Z,94802.22
2023-01-31T22:14:15.588Z,94804.81
2023-01-31T22:16:42.740Z,94796.75
2023-01-31T22:19:11.568Z,94800.66
2023-01-31T22:21:38.543Z,94807.63
2023-01-31T22:24:07.335Z,94815.09
2023-01-31T22:26:36.985Z,94809.16
2023-01-31T22:29:06.169Z,94817.69
2023-01-31T22:31:33.708Z,94818.22
2023-01-31T22:34:00.942Z,94811.97
2023-01-31T22:36:27.727Z,94811.53
2023-01-31T22:38:54.653Z,94811.53
2023-01-31T22:41:22.114Z,94813.84
2023-01-31T22:43:50.271Z,94811.53
2023-01-31T22:46:28.384Z,94820.78
2023-01-31T22:48:55.291Z,94827.53
2023-01-31T22:51:24.212Z,94830.09
2023-01-31T22:53:51.288Z,94833.47
2023-01-31T22:56:20.656Z,94821.81
2023-01-31T22:58:47.936Z,94834.44
2023-01-31T23:01:20.341Z,94821.81
2023-01-31T23:03:47.842Z,94827.75
2023-01-31T23:06:15.328Z,94816.69
2023-01-31T23:08:42.636Z,94818.22
2023-01-31T23:11:14.683Z,94807.47
2023-01-31T23:13:42.078Z,94802.09
2023-01-31T23:16:09.902Z,94812.94
2023-01-31T23:18:36.480Z,94809.13
2023-01-31T23:21:29.082Z,94811.25
2023-01-31T23:23:55.474Z,94804.00
2023-01-31T23:26:21.899Z,94800.06
2023-01-31T23:28:48.302Z,94796.72
2023-01-31T23:31:14.905Z,94800.78
2023-01-31T23:33:41.413Z,94795.50
2023-01-31T23:36:08.148Z,94789.03
2023-01-31T23:38:34.666Z,94791.84
2023-01-31T23:41:01.060Z,94790.25
2023-01-31T23:43:27.467Z,94781.53
2023-01-31T23:45:53.928Z,94777.97
2023-01-31T23:48:20.372Z,94785.69
2023-01-31T23:50:46.863Z,94775.50
2023-01-31T23:53:13.298Z,94776.03
2023-01-31T23:55:39.733Z,94758.81
2023-01-31T23:58:06.292Z,94761.03
